Time;durP1;ratioP1;P1;durP2;ratioP2;P2;SDS_P1;SDS_P2;PMS_P1;PMS_P2;Temp;Humidity;BMP_temperature;BMP_pressure;BME280_temperature;BME280_humidity;BME280_pressure;Samples;Min_cycle;Max_cycle;Signal;HPM_P1;HPM_P2
2021/03/31 00:00:26;;;;;;;13.30;12.00;;;10.10;99.90;;;;;;5026703;28;20049;-68
2021/03/31 00:03:03;;;;;;;14.27;12.30;;;10.10;99.90;;;;;;5028059;28;20048;-70
2021/03/31 00:05:30;;;;;;;13.30;12.02;;;10.10;99.90;;;;;;5030775;28;20045;-69
2021/03/31 00:07:57;;;;;;;13.93;12.63;;;10.10;99.90;;;;;;5030279;28;20042;-70
2021/03/31 00:10:29;;;;;;;13.95;12.55;;;10.00;99.90;;;;;;5030613;28;20058;-69
2021/03/31 00:12:56;;;;;;;;;;;10.00;99.90;;;;;;5030916;28;20057;-69
2021/03/31 00:15:23;;;;;;;15.18;11.90;;;9.90;99.90;;;;;;5031185;28;19921;-69
2021/03/31 00:18:12;;;;;;;13.85;12.55;;;9.90;99.90;;;;;;5030240;28;20129;-69
2021/03/31 00:20:40;;;;;;;15.13;12.82;;;9.90;99.90;;;;;;5028788;28;20499;-69
2021/03/31 00:23:12;;;;;;;16.70;15.02;;;9.90;99.90;;;;;;5030210;28;20045;-69
2021/03/31 00:25:40;;;;;;;17.13;14.40;;;9.90;99.90;;;;;;5029166;28;20052;-69
2021/03/31 00:28:09;;;;;;;14.98;13.15;;;9.90;99.90;;;;;;5029369;28;20041;-69
2021/03/31 00:30:37;;;;;;;16.88;13.38;;;9.90;99.90;;;;;;5030605;28;20045;-69
2021/03/31 00:33:05;;;;;;;14.18;12.77;;;9.90;99.90;;;;;;5015463;28;20054;-69
2021/03/31 00:35:32;;;;;;;13.93;12.63;;;9.90;99.90;;;;;;5021285;28;20057;-69
2021/03/31 00:37:59;;;;;;;14.10;12.68;;;9.80;99.90;;;;;;5029630;28;20056;-69
2021/03/31 00:40:29;;;;;;;13.80;11.95;;;9.80;99.90;;;;;;5030577;28;20053;-69
2021/03/31 00:42:56;;;;;;;15.68;13.20;;;9.70;99.90;;;;;;5048515;28;20048;-69
2021/03/31 00:45:23;;;;;;;14.13;12.93;;;9.70;99.90;;;;;;5034405;28;20053;-69
2021/03/31 00:47:50;;;;;;;14.70;12.88;;;9.70;99.90;;;;;;5029889;28;20053;-69
2021/03/31 00:50:19;;;;;;;13.88;12.23;;;9.60;99.90;;;;;;5033152;28;20057;-69
2021/03/31 00:52:49;;;;;;;15.15;12.90;;;9.60;99.90;;;;;;5032421;28;20067;-69
2021/03/31 00:55:18;;;;;;;13.93;12.45;;;9.50;99.90;;;;;;5034707;28;20476;-69
2021/03/31 00:57:45;;;;;;;14.52;13.10;;;9.50;99.90;;;;;;5033908;28;20103;-69
2021/03/31 01:00:12;;;;;;;14.23;12.73;;;9.50;99.90;;;;;;5022025;28;20055;-69
2021/03/31 01:02:40;;;;;;;13.98;12.55;;;9.50;99.90;;;;;;5032975;28;20403;-69
2021/03/31 01:05:09;;;;;;;13.80;12.43;;;9.40;99.90;;;;;;5033994;28;20043;-69
2021/03/31 01:07:37;;;;;;;15.90;13.40;;;9.40;99.90;;;;;;5033564;28;20500;-69
2021/03/31 01:10:05;;;;;;;15.23;13.70;;;9.40;99.90;;;;;;5034164;28;20053;-69
2021/03/31 01:12:51;;;;;;;15.00;13.43;;;9.30;99.90;;;;;;5031387;28;20050;-69
2021/03/31 01:15:24;;;;;;;15.35;12.65;;;9.30;99.90;;;;;;5026761;28;20107;-69
2021/03/31 01:17:55;;;;;;;13.93;12.50;;;9.20;99.90;;;;;;5021328;28;20053;-69
2021/03/31 01:20:42;;;;;;;18.48;12.88;;;9.20;99.90;;;;;;5026224;28;20069;-69
2021/03/31 01:23:35;;;;;;;18.42;13.07;;;9.20;99.90;;;;;;5032124;28;20050;-69
2021/03/31 01:26:05;;;;;;;;;;;9.20;99.90;;;;;;5030470;28;20045;-69
2021/03/31 01:29:11;;;;;;;14.63;12.52;;;9.10;99.90;;;;;;5030846;28;19924;-69
2021/03/31 01:31:57;;;;;;;13.65;12.40;;;9.10;99.90;;;;;;5020572;28;20081;-69
2021/03/31 01:34:30;;;;;;;13.45;12.07;;;9.00;99.90;;;;;;5032778;28;20057;-69
2021/03/31 01:36:59;;;;;;;14.02;12.63;;;9.00;99.90;;;;;;5031355;28;20415;-69
2021/03/31 01:39:28;;;;;;;13.10;11.80;;;8.90;99.90;;;;;;5032811;28;20127;-69
2021/03/31 01:41:59;;;;;;;14.15;12.75;;;8.90;99.90;;;;;;5031035;28;20045;-69
2021/03/31 01:44:26;;;;;;;13.93;12.50;;;8.90;99.90;;;;;;5031834;28;20057;-69
2021/03/31 01:46:55;;;;;;;18.10;12.50;;;8.80;99.90;;;;;;5034279;28;20056;-69
2021/03/31 01:49:25;;;;;;;13.50;12.10;;;8.80;99.90;;;;;;5022560;28;20049;-69
2021/03/31 01:51:59;;;;;;;13.93;12.55;;;8.80;99.90;;;;;;5031447;28;20099;-68
2021/03/31 01:54:28;;;;;;;14.93;13.15;;;8.70;99.90;;;;;;5031749;28;20057;-68
2021/03/31 01:56:57;;;;;;;13.80;12.43;;;8.70;99.90;;;;;;5030443;28;20053;-68
2021/03/31 01:59:26;;;;;;;14.52;12.32;;;8.70;99.90;;;;;;5026901;28;20049;-68
2021/03/31 02:01:54;;;;;;;13.45;11.75;;;8.60;99.90;;;;;;5015328;28;20042;-68
2021/03/31 02:04:22;;;;;;;16.15;12.45;;;8.60;99.90;;;;;;5029720;28;20577;-68
2021/03/31 02:06:50;;;;;;;12.52;11.38;;;8.60;99.90;;;;;;5030738;28;20042;-68
2021/03/31 02:09:18;;;;;;;13.52;12.13;;;8.60;99.90;;;;;;5031798;28;20045;-68
2021/03/31 02:11:46;;;;;;;14.00;12.60;;;8.60;99.90;;;;;;5013329;28;20523;-68
2021/03/31 02:14:15;;;;;;;13.60;12.20;;;8.60;99.90;;;;;;5025597;28;20060;-69
2021/03/31 02:16:46;;;;;;;15.13;12.32;;;8.60;99.90;;;;;;5034344;28;20503;-68
2021/03/31 02:19:23;;;;;;;13.88;12.30;;;8.60;99.90;;;;;;5021434;28;20053;-68
2021/03/31 02:21:51;;;;;;;13.13;11.85;;;8.50;99.90;;;;;;5027262;28;20045;-68
2021/03/31 02:24:20;;;;;;;13.77;12.43;;;8.50;99.90;;;;;;5032467;28;20053;-69
2021/03/31 02:26:49;;;;;;;15.55;12.55;;;8.50;99.90;;;;;;5027310;28;20046;-68
2021/03/31 02:29:16;;;;;;;16.23;12.05;;;8.50;99.90;;;;;;5028477;28;20103;-68
2021/03/31 02:31:45;;;;;;;13.02;11.68;;;8.50;99.90;;;;;;5044846;28;20053;-68
2021/03/31 02:34:15;;;;;;;17.08;12.07;;;8.50;99.90;;;;;;5030419;28;20068;-68
2021/03/31 02:36:44;;;;;;;13.20;11.68;;;8.40;99.90;;;;;;5031016;28;20054;-68
2021/03/31 02:39:13;;;;;;;17.23;12.05;;;8.40;99.90;;;;;;5032552;28;20408;-68
2021/03/31 02:41:44;;;;;;;13.80;11.73;;;8.40;99.90;;;;;;5030598;28;20585;-68
2021/03/31 02:44:12;;;;;;;12.95;11.50;;;8.40;99.90;;;;;;5044750;28;20412;-68
2021/03/31 02:46:42;;;;;;;13.48;12.07;;;8.30;99.90;;;;;;5030516;28;20059;-68
2021/03/31 02:49:11;;;;;;;14.57;12.48;;;8.20;99.90;;;;;;5020421;28;20041;-68
2021/03/31 02:51:39;;;;;;;16.55;12.15;;;8.20;99.90;;;;;;5031806;28;20053;-69
2021/03/31 02:54:08;;;;;;;13.32;11.63;;;8.20;99.90;;;;;;5031908;28;20048;-68
2021/03/31 02:56:38;;;;;;;15.32;12.15;;;8.10;99.90;;;;;;5044971;28;20046;-68
2021/03/31 02:59:05;;;;;;;13.18;11.85;;;8.10;99.90;;;;;;5022002;28;20053;-68
2021/03/31 03:01:33;;;;;;;13.60;12.00;;;8.10;99.90;;;;;;5028260;28;20056;-68
2021/03/31 03:04:00;;;;;;;17.02;13.30;;;8.10;99.90;;;;;;5030065;28;20061;-68
2021/03/31 03:06:30;;;;;;;15.45;12.40;;;8.00;99.90;;;;;;5032126;28;20050;-68
2021/03/31 03:09:01;;;;;;;14.82;13.02;;;8.00;99.90;;;;;;5030227;28;20111;-68
2021/03/31 03:11:29;;;;;;;15.52;13.15;;;8.00;99.90;;;;;;5030640;28;20508;-68
2021/03/31 03:13:58;;;;;;;15.13;12.50;;;8.00;99.90;;;;;;5030604;28;20057;-68
2021/03/31 03:16:25;;;;;;;14.18;12.68;;;8.00;99.90;;;;;;5015920;28;20099;-68
2021/03/31 03:18:52;;;;;;;13.68;12.27;;;8.00;99.90;;;;;;4977095;28;20042;-68
2021/03/31 03:21:20;;;;;;;17.83;13.63;;;7.90;99.90;;;;;;5025861;28;20049;-68
2021/03/31 03:23:47;;;;;;;13.60;12.13;;;8.00;99.90;;;;;;5029937;28;20500;-68
2021/03/31 03:26:16;;;;;;;16.23;13.65;;;7.90;99.90;;;;;;5029662;28;20042;-69
2021/03/31 03:28:46;;;;;;;14.75;13.35;;;8.00;99.90;;;;;;4990510;28;20050;-68
2021/03/31 03:31:13;;;;;;;15.43;12.85;;;7.90;99.90;;;;;;5031130;28;20539;-68
2021/03/31 03:33:41;;;;;;;14.57;13.02;;;7.90;99.90;;;;;;5022195;28;20553;-68
2021/03/31 03:36:12;;;;;;;15.15;13.00;;;7.90;99.90;;;;;;5020573;28;20076;-69
2021/03/31 03:38:39;;;;;;;14.82;13.32;;;7.80;99.90;;;;;;5027290;28;20319;-68
2021/03/31 03:41:11;;;;;;;16.02;12.73;;;7.70;99.90;;;;;;5030323;28;20046;-68
2021/03/31 03:43:40;;;;;;;15.45;12.93;;;7.70;99.90;;;;;;5030093;28;20111;-68
2021/03/31 03:46:10;;;;;;;14.15;12.75;;;7.70;99.90;;;;;;5024459;28;20041;-68
2021/03/31 03:48:37;;;;;;;15.60;13.13;;;7.60;99.90;;;;;;5029929;28;20116;-68
2021/03/31 03:51:09;;;;;;;14.95;12.50;;;7.60;99.90;;;;;;5029392;28;20195;-68
2021/03/31 03:53:37;;;;;;;14.63;12.97;;;7.60;99.90;;;;;;5030443;28;20057;-68
2021/03/31 03:56:10;;;;;;;14.00;12.23;;;7.70;99.90;;;;;;5030310;28;20050;-68
2021/03/31 03:58:39;;;;;;;14.02;12.13;;;7.70;99.90;;;;;;5022056;28;20042;-68
2021/03/31 04:01:06;;;;;;;14.85;12.23;;;7.60;99.90;;;;;;5028275;28;20471;-68
2021/03/31 04:03:33;;;;;;;13.40;11.82;;;7.60;99.90;;;;;;5026784;28;20045;-68
2021/03/31 04:06:00;;;;;;;14.13;12.57;;;7.60;99.90;;;;;;5028905;28;20427;-68
2021/03/31 04:08:27;;;;;;;14.77;13.25;;;7.60;99.90;;;;;;5030856;28;20061;-68
2021/03/31 04:10:57;;;;;;;16.17;11.88;;;7.60;99.90;;;;;;5022161;28;20077;-68
2021/03/31 04:13:25;;;;;;;14.52;11.90;;;7.60;99.90;;;;;;5021151;28;20053;-68
2021/03/31 04:15:57;;;;;;;12.95;11.70;;;7.60;99.90;;;;;;5030596;28;20045;-68
2021/03/31 04:18:26;;;;;;;12.75;11.45;;;7.60;99.90;;;;;;5031277;28;20049;-69
2021/03/31 04:20:54;;;;;;;14.73;11.50;;;7.50;99.90;;;;;;5016059;28;20061;-68
2021/03/31 04:23:21;;;;;;;14.43;12.18;;;7.50;99.90;;;;;;5030820;28;20051;-68
2021/03/31 04:25:48;;;;;;;13.32;11.98;;;7.50;99.90;;;;;;5030326;28;20045;-68
2021/03/31 04:28:17;;;;;;;13.60;11.82;;;7.50;99.90;;;;;;5028939;28;20519;-68
2021/03/31 04:30:44;;;;;;;14.05;11.70;;;7.50;99.90;;;;;;5029093;28;20088;-68
2021/03/31 04:33:14;;;;;;;13.23;11.93;;;7.50;99.90;;;;;;5030265;28;20381;-68
2021/03/31 04:35:42;;;;;;;12.88;11.55;;;7.50;99.90;;;;;;5030495;28;20100;-68
2021/03/31 04:38:11;;;;;;;12.80;11.40;;;7.40;99.90;;;;;;5028839;28;20081;-68
2021/03/31 04:41:01;;;;;;;13.15;11.85;;;7.40;99.90;;;;;;5030737;28;20562;-68
2021/03/31 04:43:32;;;;;;;14.98;11.95;;;7.40;99.90;;;;;;5029736;28;20408;-68
2021/03/31 04:46:02;;;;;;;18.73;12.97;;;7.40;99.90;;;;;;5031048;28;20057;-69
2021/03/31 04:48:29;;;;;;;15.15;12.48;;;7.40;99.90;;;;;;5030526;28;20292;-69
2021/03/31 04:50:56;;;;;;;17.70;13.00;;;7.50;99.90;;;;;;5029571;28;20049;-69
2021/03/31 04:53:23;;;;;;;15.98;12.70;;;7.50;99.90;;;;;;5028108;28;20053;-69
2021/03/31 04:55:50;;;;;;;13.90;12.05;;;7.40;99.90;;;;;;5023687;28;20558;-69
2021/03/31 04:58:17;;;;;;;13.13;11.70;;;7.50;99.90;;;;;;5022349;28;20557;-68
2021/03/31 05:00:45;;;;;;;12.77;11.52;;;7.50;99.90;;;;;;5030237;28;20499;-68
2021/03/31 05:03:11;;;;;;;14.05;12.65;;;7.50;99.90;;;;;;5030199;28;20045;-68
2021/03/31 05:05:39;;;;;;;15.57;13.25;;;7.50;99.90;;;;;;5045966;28;20204;-68
2021/03/31 05:08:07;;;;;;;15.55;12.77;;;7.50;99.90;;;;;;5030566;28;20053;-68
2021/03/31 05:10:35;;;;;;;15.32;13.27;;;7.60;99.90;;;;;;5030400;28;20123;-68
2021/03/31 05:13:03;;;;;;;13.93;12.25;;;7.60;99.90;;;;;;5023734;28;20135;-69
2021/03/31 05:15:31;;;;;;;13.68;12.45;;;7.60;99.90;;;;;;5037126;28;20045;-68
2021/03/31 05:17:58;;;;;;;17.27;12.43;;;7.70;99.90;;;;;;5030512;28;20050;-68
2021/03/31 05:20:25;;;;;;;13.18;11.98;;;7.80;99.90;;;;;;5025332;28;20046;-68
2021/03/31 05:22:52;;;;;;;14.27;12.82;;;7.80;99.90;;;;;;5025055;28;20466;-68
2021/03/31 05:25:19;;;;;;;13.82;12.48;;;7.90;99.90;;;;;;5029623;28;20131;-68
2021/03/31 05:27:45;;;;;;;16.48;14.45;;;7.90;99.90;;;;;;5027867;28;20563;-68
2021/03/31 05:30:13;;;;;;;13.98;12.63;;;7.90;99.90;;;;;;5032297;28;20060;-68
2021/03/31 05:32:40;;;;;;;15.40;12.88;;;8.00;99.90;;;;;;5032685;28;20107;-68
2021/03/31 05:35:11;;;;;;;14.18;12.70;;;8.00;99.90;;;;;;5023069;28;20128;-68
2021/03/31 05:37:38;;;;;;;12.75;11.63;;;8.10;99.90;;;;;;5020722;28;20382;-68
2021/03/31 05:40:06;;;;;;;13.73;12.32;;;8.10;99.90;;;;;;5032375;28;20049;-68
2021/03/31 05:42:36;;;;;;;19.75;12.30;;;8.20;99.90;;;;;;5029631;28;20128;-68
2021/03/31 05:45:07;;;;;;;17.30;12.85;;;8.20;99.90;;;;;;5026868;28;20052;-67
2021/03/31 05:47:38;;;;;;;14.30;12.52;;;8.20;99.90;;;;;;5028812;28;20057;-69
2021/03/31 05:50:07;;;;;;;18.55;12.88;;;8.30;99.90;;;;;;5013104;28;20057;-68
2021/03/31 05:52:35;;;;;;;14.65;12.88;;;8.40;99.90;;;;;;5028205;28;20053;-69
2021/03/31 05:55:06;;;;;;;21.23;13.70;;;8.50;99.90;;;;;;5027555;28;20495;-67
2021/03/31 05:57:37;;;;;;;15.30;12.95;;;8.60;99.90;;;;;;5026987;28;20061;-68
2021/03/31 06:00:19;;;;;;;14.55;13.00;;;8.70;99.90;;;;;;5030238;28;20041;-68
2021/03/31 06:02:48;;;;;;;14.60;12.10;;;8.80;99.90;;;;;;5028065;28;20858;-68
2021/03/31 06:05:17;;;;;;;14.43;12.88;;;8.90;99.90;;;;;;5023901;28;20053;-68
2021/03/31 06:07:46;;;;;;;16.27;13.25;;;9.00;99.90;;;;;;5025021;28;20104;-68
2021/03/31 06:10:17;;;;;;;14.40;13.00;;;9.10;99.90;;;;;;5025335;28;20476;-69
2021/03/31 06:12:54;;;;;;;18.55;13.40;;;9.20;99.90;;;;;;5029390;28;20053;-69
2021/03/31 06:15:30;;;;;;;14.98;13.32;;;9.30;99.90;;;;;;5030274;28;20125;-69
2021/03/31 06:18:00;;;;;;;18.45;13.02;;;9.40;99.90;;;;;;5032456;28;20123;-69
2021/03/31 06:20:59;;;;;;;17.15;13.80;;;9.60;99.90;;;;;;5017435;28;20136;-69
2021/03/31 06:24:01;;;;;;;15.57;12.98;;;9.70;99.90;;;;;;5026908;28;20053;-69
2021/03/31 06:26:32;;;;;;;17.27;15.48;;;9.90;99.90;;;;;;5024375;28;20049;-69
2021/03/31 06:29:04;;;;;;;16.10;14.43;;;10.00;99.90;;;;;;5022255;28;20057;-69
2021/03/31 06:31:46;;;;;;;18.50;13.15;;;10.10;99.90;;;;;;5031059;28;20045;-69
2021/03/31 06:34:19;;;;;;;15.00;13.25;;;10.30;99.90;;;;;;5008321;28;20055;-69
2021/03/31 06:36:50;;;;;;;20.63;13.75;;;10.40;99.90;;;;;;5011896;28;20080;-69
2021/03/31 06:39:26;;;;;;;19.38;13.95;;;10.40;99.90;;;;;;5017793;28;20057;-68
2021/03/31 06:41:54;;;;;;;14.80;13.27;;;10.50;99.90;;;;;;5024364;28;20056;-68
2021/03/31 06:44:45;;;;;;;17.73;14.73;;;10.60;99.90;;;;;;5018084;28;20053;-68
2021/03/31 06:47:18;;;;;;;23.10;14.13;;;10.80;99.90;;;;;;5012119;28;20050;-68
2021/03/31 06:49:47;;;;;;;23.00;15.15;;;10.90;99.90;;;;;;4999768;28;20112;-68
2021/03/31 06:52:14;;;;;;;25.17;14.90;;;11.00;99.90;;;;;;5017327;28;20057;-68
2021/03/31 06:54:48;;;;;;;19.42;14.85;;;11.00;99.90;;;;;;5012081;28;20046;-68
2021/03/31 06:57:26;;;;;;;21.45;14.98;;;11.10;99.90;;;;;;5029592;28;20049;-69
2021/03/31 07:00:04;;;;;;;17.88;14.85;;;11.20;99.90;;;;;;5028848;28;20507;-68
2021/03/31 07:02:33;;;;;;;24.20;14.65;;;11.40;99.90;;;;;;5029811;28;20080;-68
2021/03/31 07:05:01;;;;;;;17.73;13.63;;;11.60;99.90;;;;;;5031305;28;20439;-69
2021/03/31 07:07:41;;;;;;;20.42;14.63;;;11.80;99.90;;;;;;5028830;28;20063;-69
2021/03/31 07:10:17;;;;;;;29.60;16.05;;;12.00;99.90;;;;;;5031060;28;20504;-69
2021/03/31 07:12:49;;;;;;;21.80;14.98;;;12.20;99.90;;;;;;5028768;28;20128;-68
2021/03/31 07:15:25;;;;;;;26.85;15.13;;;12.40;99.90;;;;;;5019727;28;20594;-68
2021/03/31 07:17:56;;;;;;;21.55;15.10;;;12.40;99.90;;;;;;5027069;28;20037;-68
2021/03/31 07:20:26;;;;;;;21.85;14.55;;;12.50;99.90;;;;;;5026174;28;20055;-68
2021/03/31 07:22:54;;;;;;;17.40;14.90;;;12.50;99.90;;;;;;5028644;28;20038;-68
2021/03/31 07:25:23;;;;;;;19.52;15.10;;;12.70;99.90;;;;;;5029423;28;20095;-68
2021/03/31 07:27:51;;;;;;;27.25;15.65;;;12.80;99.90;;;;;;5028364;28;20046;-69
2021/03/31 07:30:22;;;;;;;23.73;15.95;;;13.00;99.90;;;;;;5018571;28;20054;-69
2021/03/31 07:33:17;;;;;;;23.65;15.85;;;13.00;99.90;;;;;;5026996;28;20042;-69
2021/03/31 07:35:45;;;;;;;20.65;16.00;;;13.20;99.90;;;;;;5031249;28;20144;-69
2021/03/31 07:38:32;;;;;;;29.38;17.00;;;13.30;99.90;;;;;;5027559;28;20111;-69
2021/03/31 07:40:59;;;;;;;28.58;17.58;;;13.40;99.90;;;;;;5028874;28;20183;-69
2021/03/31 07:43:37;;;;;;;21.95;16.63;;;13.40;99.90;;;;;;5027620;28;20073;-69
2021/03/31 07:46:23;;;;;;;19.15;14.93;;;13.60;99.90;;;;;;5021212;28;20056;-69
2021/03/31 07:48:50;;;;;;;23.25;16.75;;;13.80;99.90;;;;;;5027884;28;20104;-69
2021/03/31 07:51:19;;;;;;;22.50;16.52;;;14.00;99.90;;;;;;5028441;28;20085;-69
2021/03/31 07:53:50;;;;;;;25.50;15.65;;;14.00;99.90;;;;;;5040214;28;20124;-69
2021/03/31 07:56:27;;;;;;;25.83;15.67;;;14.10;99.90;;;;;;5037911;28;20385;-69
2021/03/31 07:59:07;;;;;;;21.23;15.27;;;14.20;99.90;;;;;;5024765;28;20358;-69
2021/03/31 08:01:47;;;;;;;23.95;15.70;;;14.40;99.90;;;;;;5028493;28;20069;-69
2021/03/31 08:04:17;;;;;;;20.35;15.00;;;14.60;99.90;;;;;;5029720;28;20081;-69
2021/03/31 08:06:45;;;;;;;18.35;13.93;;;14.70;99.90;;;;;;5028505;28;20065;-69
2021/03/31 08:09:21;;;;;;;18.25;14.85;;;14.80;99.90;;;;;;5030823;28;20399;-69
2021/03/31 08:12:00;;;;;;;22.80;15.35;;;14.90;99.90;;;;;;5029149;28;20140;-69
2021/03/31 08:14:27;;;;;;;18.55;15.00;;;14.90;99.90;;;;;;5031060;28;20103;-69
2021/03/31 08:17:00;;;;;;;17.85;14.85;;;15.00;99.90;;;;;;5030227;28;20045;-68
2021/03/31 08:19:31;;;;;;;20.38;15.18;;;15.10;99.90;;;;;;5030753;28;20061;-69
2021/03/31 08:22:17;;;;;;;16.17;13.95;;;15.10;99.90;;;;;;5027787;28;20104;-69
2021/03/31 08:24:49;;;;;;;16.98;14.93;;;15.20;99.90;;;;;;5028893;28;20042;-69
2021/03/31 08:27:16;;;;;;;;;;;15.30;99.90;;;;;;5028361;28;20107;-69
2021/03/31 08:29:43;;;;;;;18.45;14.48;;;15.40;99.90;;;;;;5028817;28;20334;-68
2021/03/31 08:32:11;;;;;;;22.15;15.15;;;15.60;99.90;;;;;;5029420;28;20049;-69
2021/03/31 08:34:38;;;;;;;30.17;15.57;;;15.70;99.90;;;;;;5029929;28;20049;-69
2021/03/31 08:37:07;;;;;;;16.75;14.00;;;15.70;99.90;;;;;;5027949;28;20080;-70
2021/03/31 08:39:35;;;;;;;17.63;14.65;;;15.80;99.90;;;;;;5030598;28;20518;-68
2021/03/31 08:42:03;;;;;;;19.98;14.23;;;15.90;99.90;;;;;;5031782;28;20504;-68
2021/03/31 08:44:34;;;;;;;20.88;14.52;;;16.00;99.90;;;;;;5028749;28;20491;-68
2021/03/31 08:47:16;;;;;;;17.23;14.30;;;16.20;99.60;;;;;;5028222;28;20519;-68
2021/03/31 08:49:44;;;;;;;;;;;16.30;98.90;;;;;;5030200;28;20068;-68
2021/03/31 08:52:15;;;;;;;21.10;17.05;;;16.40;98.50;;;;;;5012778;28;20441;-68
2021/03/31 08:54:46;;;;;;;19.58;16.23;;;16.50;98.00;;;;;;5012573;28;20070;-68
2021/03/31 08:57:19;;;;;;;22.17;15.88;;;16.70;97.30;;;;;;5028972;28;20068;-69
2021/03/31 08:59:51;;;;;;;18.65;15.85;;;16.80;97.00;;;;;;5024797;28;20096;-69
2021/03/31 09:02:24;;;;;;;24.83;17.08;;;16.90;96.60;;;;;;5028983;28;20495;-69
2021/03/31 09:05:01;;;;;;;25.17;17.20;;;17.00;96.00;;;;;;5033026;28;20057;-69
2021/03/31 09:07:29;;;;;;;20.15;15.70;;;17.20;95.80;;;;;;5033705;28;20327;-68
2021/03/31 09:09:56;;;;;;;22.48;16.65;;;17.40;95.90;;;;;;5033178;28;20049;-69
2021/03/31 09:12:26;;;;;;;24.38;15.90;;;17.50;95.50;;;;;;5030214;28;20042;-69
2021/03/31 09:14:56;;;;;;;21.13;16.15;;;17.70;94.70;;;;;;5032638;28;20053;-69
2021/03/31 09:17:28;;;;;;;23.70;16.55;;;17.80;93.80;;;;;;5031377;28;20049;-69
2021/03/31 09:19:58;;;;;;;21.40;15.63;;;17.90;93.00;;;;;;5023536;28;20515;-69
2021/03/31 09:22:30;;;;;;;24.00;16.35;;;18.10;92.50;;;;;;5032770;28;20079;-69
2021/03/31 09:25:10;;;;;;;27.13;15.93;;;18.20;92.30;;;;;;5032089;28;20076;-69
2021/03/31 09:27:56;;;;;;;22.33;15.82;;;18.40;92.10;;;;;;5021646;28;20542;-69
2021/03/31 09:30:24;;;;;;;30.67;16.58;;;18.60;91.40;;;;;;5032062;28;20129;-68
2021/03/31 09:33:01;;;;;;;25.30;17.10;;;18.80;90.20;;;;;;5026964;28;20061;-68
2021/03/31 09:35:30;;;;;;;24.38;16.23;;;18.80;89.70;;;;;;5030714;28;20103;-68
2021/03/31 09:38:03;;;;;;;19.95;16.05;;;18.70;89.30;;;;;;5021351;28;20120;-69
2021/03/31 09:40:37;;;;;;;20.40;16.20;;;18.80;89.00;;;;;;5024160;28;20404;-69
2021/03/31 09:43:09;;;;;;;22.80;17.73;;;19.10;88.50;;;;;;5026976;28;20046;-69
2021/03/31 09:45:36;;;;;;;24.67;16.92;;;19.20;87.90;;;;;;5021560;28;20107;-69
2021/03/31 09:48:04;;;;;;;27.58;17.77;;;19.40;87.50;;;;;;5031750;28;20135;-69
2021/03/31 09:50:33;;;;;;;20.55;15.32;;;19.60;87.10;;;;;;5029862;28;20049;-69
2021/03/31 09:53:04;;;;;;;22.13;16.67;;;19.90;85.30;;;;;;5020247;28;20515;-69
2021/03/31 09:55:31;;;;;;;21.67;16.77;;;20.10;83.70;;;;;;5023143;28;20076;-69
2021/03/31 09:58:02;;;;;;;21.85;15.98;;;20.30;83.30;;;;;;5025495;28;20140;-69
2021/03/31 10:00:35;;;;;;;22.33;17.15;;;20.40;81.30;;;;;;5017447;28;20424;-69
2021/03/31 10:03:06;;;;;;;27.65;17.23;;;20.50;80.70;;;;;;5031730;28;20042;-69
2021/03/31 10:05:33;;;;;;;20.08;16.42;;;20.60;80.40;;;;;;5031573;28;20069;-68
2021/03/31 10:08:09;;;;;;;19.38;17.13;;;20.60;78.10;;;;;;5024819;28;20111;-69
2021/03/31 10:10:44;;;;;;;17.92;16.13;;;20.60;77.70;;;;;;5031442;28;20041;-69
2021/03/31 10:13:15;;;;;;;18.13;15.65;;;20.80;79.10;;;;;;5028546;28;20522;-68
2021/03/31 10:15:45;;;;;;;;;;;21.10;77.10;;;;;;5036305;28;20059;-69
2021/03/31 10:18:14;;;;;;;17.73;15.82;;;21.30;75.50;;;;;;5031363;28;19924;-69
2021/03/31 10:20:46;;;;;;;19.30;16.40;;;21.50;74.70;;;;;;5018692;28;20462;-70
2021/03/31 10:23:34;;;;;;;19.17;15.55;;;21.50;74.20;;;;;;5022395;28;20037;-69
2021/03/31 10:26:29;;;;;;;20.00;16.55;;;21.50;73.20;;;;;;5030008;28;20049;-69
2021/03/31 10:28:59;;;;;;;22.67;16.08;;;21.70;72.30;;;;;;5028199;28;20053;-70
2021/03/31 10:31:47;;;;;;;17.45;15.20;;;21.90;72.40;;;;;;5030589;28;20049;-69
2021/03/31 10:34:17;;;;;;;17.80;15.98;;;22.30;71.50;;;;;;5032653;28;20053;-69
2021/03/31 10:50:04;;;;;;;17.80;15.88;;;23.20;66.30;;;;;;5031911;28;20127;-69
2021/03/31 10:52:35;;;;;;;20.20;16.20;;;23.30;66.10;;;;;;5027518;28;20492;-69
2021/03/31 10:55:03;;;;;;;20.48;15.93;;;23.40;66.10;;;;;;5022970;28;20041;-70
2021/03/31 10:57:31;;;;;;;17.63;15.75;;;23.50;65.70;;;;;;5024591;28;20065;-70
2021/03/31 11:00:00;;;;;;;19.65;14.57;;;23.30;65.10;;;;;;5029807;28;20053;-70
2021/03/31 11:02:26;;;;;;;17.25;14.88;;;23.40;65.50;;;;;;5022528;28;20041;-70
2021/03/31 11:04:53;;;;;;;16.67;14.93;;;23.50;64.90;;;;;;5032504;28;20438;-69
2021/03/31 11:07:20;;;;;;;15.43;13.93;;;23.80;64.40;;;;;;5030844;28;20522;-69
2021/03/31 11:09:49;;;;;;;16.90;14.68;;;24.10;64.30;;;;;;5029638;28;20056;-69
2021/03/31 11:12:16;;;;;;;18.52;14.65;;;24.50;63.50;;;;;;5008596;28;20108;-69
2021/03/31 11:14:43;;;;;;;16.10;14.50;;;24.60;60.70;;;;;;5029183;28;20457;-69
2021/03/31 11:17:37;;;;;;;15.95;14.35;;;24.70;61.70;;;;;;5031750;28;20046;-69
2021/03/31 11:28:07;;;;;;;16.60;14.93;;;24.90;59.80;;;;;;5026633;28;20503;-69
2021/03/31 11:30:35;;;;;;;16.40;14.02;;;25.00;60.20;;;;;;5031125;28;20057;-69
2021/03/31 11:33:02;;;;;;;19.05;15.18;;;25.30;59.10;;;;;;5030427;28;20144;-70
2021/03/31 11:35:29;;;;;;;17.85;15.00;;;25.50;58.10;;;;;;5015201;28;20057;-70
2021/03/31 11:37:56;;;;;;;16.33;14.68;;;25.40;57.70;;;;;;5031181;28;20076;-70
2021/03/31 11:40:23;;;;;;;15.70;14.07;;;25.60;57.70;;;;;;5030400;28;20056;-70
2021/03/31 11:42:50;;;;;;;15.18;13.68;;;25.70;57.90;;;;;;5031682;28;20152;-70
2021/03/31 11:45:17;;;;;;;15.85;14.35;;;26.20;57.40;;;;;;5030114;28;20053;-70
2021/03/31 11:47:43;;;;;;;16.02;14.52;;;26.60;57.30;;;;;;5032830;28;20532;-70
2021/03/31 11:50:11;;;;;;;18.08;14.85;;;26.70;57.00;;;;;;5030347;28;20056;-69
2021/03/31 11:52:38;;;;;;;16.45;14.68;;;27.10;56.70;;;;;;5029100;28;20049;-69
2021/03/31 11:55:07;;;;;;;15.90;14.38;;;27.30;56.80;;;;;;5030788;28;20053;-69
2021/03/31 11:57:36;;;;;;;17.13;14.45;;;27.50;55.90;;;;;;5025320;28;20065;-70
2021/03/31 12:00:06;;;;;;;18.55;14.95;;;27.40;55.50;;;;;;5027714;28;20090;-70
2021/03/31 12:02:35;;;;;;;16.25;14.30;;;27.40;55.30;;;;;;5023017;28;20053;-70
2021/03/31 12:05:03;;;;;;;17.40;15.60;;;27.40;55.30;;;;;;5028760;28;20049;-69
2021/03/31 12:07:29;;;;;;;17.83;14.32;;;27.10;55.00;;;;;;5030143;28;20115;-69
2021/03/31 12:09:56;;;;;;;16.98;14.40;;;27.30;55.20;;;;;;5028781;28;20084;-70
2021/03/31 12:12:23;;;;;;;15.40;13.93;;;27.80;54.60;;;;;;5027564;28;20500;-69
2021/03/31 12:14:50;;;;;;;15.75;14.35;;;28.70;53.60;;;;;;5034027;28;20045;-70
2021/03/31 12:17:17;;;;;;;14.93;13.43;;;28.60;53.50;;;;;;5013326;28;20447;-70
2021/03/31 12:19:44;;;;;;;15.30;13.75;;;29.00;53.20;;;;;;5029096;28;20088;-70
2021/03/31 12:22:12;;;;;;;15.02;13.43;;;29.20;52.30;;;;;;5030658;28;20126;-72
2021/03/31 12:24:39;;;;;;;16.42;14.35;;;28.90;51.90;;;;;;5029115;28;20132;-71
2021/03/31 12:27:08;;;;;;;14.82;13.43;;;28.60;52.00;;;;;;5028883;28;20073;-70
2021/03/31 12:29:44;;;;;;;16.08;14.57;;;28.40;52.50;;;;;;5028663;28;20115;-70
2021/03/31 12:32:15;;;;;;;15.05;13.55;;;28.70;52.40;;;;;;5029730;28;20060;-70
2021/03/31 12:34:44;;;;;;;14.93;13.52;;;29.40;52.10;;;;;;5030441;28;20061;-70
2021/03/31 12:37:12;;;;;;;13.52;12.18;;;29.20;49.90;;;;;;5030554;28;20049;-70
2021/03/31 12:39:39;;;;;;;14.85;12.50;;;29.10;50.10;;;;;;5031318;28;20044;-69
2021/03/31 12:42:07;;;;;;;14.15;12.63;;;29.60;49.50;;;;;;5047633;28;20037;-69
2021/03/31 12:44:34;;;;;;;14.20;12.55;;;29.80;49.80;;;;;;5033537;28;20391;-69
2021/03/31 12:47:01;;;;;;;14.27;12.68;;;30.50;49.90;;;;;;5031329;28;20096;-70
2021/03/31 12:49:29;;;;;;;15.82;14.38;;;30.70;47.80;;;;;;5034604;28;20041;-69
2021/03/31 12:52:07;;;;;;;14.95;12.88;;;30.30;48.20;;;;;;5034074;28;20050;-70
2021/03/31 12:54:40;;;;;;;14.77;12.68;;;30.80;48.40;;;;;;5035487;28;20140;-70
2021/03/31 12:57:07;;;;;;;14.07;12.60;;;31.10;47.90;;;;;;5029177;28;20388;-70
2021/03/31 12:59:34;;;;;;;14.10;12.55;;;30.80;47.90;;;;;;5031635;28;20111;-70
2021/03/31 13:02:22;;;;;;;13.55;12.35;;;31.60;47.70;;;;;;5026917;28;20068;-70
2021/03/31 13:05:10;;;;;;;14.73;12.93;;;32.10;47.50;;;;;;5028987;28;20053;-70
2021/03/31 13:07:57;;;;;;;14.32;13.07;;;32.30;46.70;;;;;;5014371;28;20042;-70
2021/03/31 13:10:45;;;;;;;14.20;12.90;;;32.80;46.30;;;;;;5018131;28;20041;-70
2021/03/31 13:16:12;;;;;;;14.45;13.25;;;34.60;45.00;;;;;;5036145;28;20549;-69